KNTU/NTU METAR and TAF weather

Enter ICAO airport designator
Station Type Date Time Source
KNTU METAR 2021/09/24 02:56 UTC NOAA

KNTU 240256Z 28004KT 10SM BKN075 20/17 A2996 RMK AO2 SLP147 T02000172 51010


Station Type Date Time Source
KNTU Decoded METAR 2021/09/24 02:56 UTC NOAA

OCEANA, NAVAL AIR STATION, VA, United States (KNTU) 36-49N 076-02W 6M
Sep 23, 2021 - 10:56 PM EDT / 2021.09.24 0256 UTC
Wind: from the W (280 degrees) at 5 MPH (4 KT):0
Visibility: 10 mile(s):0
Sky conditions: mostly cloudy
Temperature: 68.0 F (20.0 C)
Dew Point: 63.0 F (17.2 C)
Relative Humidity: 83%
Pressure (altimeter): 29.96 in. Hg (1014 hPa)
Pressure tendency: 0.03 inches (1.0 hPa) higher than three hours ago
ob: KNTU 240256Z 28004KT 10SM BKN075 20/17 A2996 RMK AO2 SLP147 T02000172 51010
cycle: 3

Station Type Date Time Source
KNTU TAF 2021/09/23 23:22 UTC NOAA

TAF KNTU 2323/2423 33006KT 9999 FEW010 OVC030 QNH2987INS
TEMPO 2323/2405 VRB06KT 3200 SHRA BKN020 OVC030
FM240500 01008KT 9999 VCSH BKN035 OVC100 QNH2990INS
FM241200 01014G24KT 9999 BKN040 QNH3000INS T19/2410Z T23/2419Z FN20051

Example: see airport list